Time;durP1;ratioP1;P1;durP2;ratioP2;P2;SDS_P1;SDS_P2;PMS_P1;PMS_P2;Temp;Humidity;BMP_temperature;BMP_pressure;BME280_temperature;BME280_humidity;BME280_pressure;Samples;Min_cycle;Max_cycle;Signal;HPM_P1;HPM_P2
2022/02/17 00:01:07;;;;;;;;;;;;;;;7.90;64.31;99108.34;4426726;32;34141;-78
2022/02/17 00:03:35;;;;;;;;;;;;;;;7.97;63.93;99107.63;4420166;32;32421;-78
2022/02/17 00:06:02;;;;;;;;;;;;;;;7.22;66.19;99120.03;4427633;32;34264;-78
2022/02/17 00:08:30;;;;;;;;;;;;;;;7.98;64.02;99121.69;4421270;32;32529;-77
2022/02/17 00:10:58;;;;;;;;;;;;;;;8.29;62.74;99120.50;4437475;32;33201;-78
2022/02/17 00:13:26;;;;;;;;;;;;;;;8.42;62.36;99113.03;4429907;32;33500;-77
2022/02/17 00:15:53;;;;;;;;;;;;;;;8.28;62.83;99101.13;4425421;32;35827;-78
2022/02/17 00:18:21;;;;;;;;;;;;;;;8.40;62.47;99086.69;4414342;32;32478;-77
2022/02/17 00:20:53;;;;;;;;;;;;;;;7.97;63.93;99091.75;4442834;32;33261;-78
2022/02/17 00:23:20;;;;;;;;;;;;;;;8.34;62.69;99081.13;4433927;32;34237;-77
2022/02/17 00:25:49;;;;;;;;;;;;;;;7.65;64.95;99082.50;4437064;32;34614;-78
2022/02/17 00:28:16;;;;;;;;;;;;;;;7.88;64.57;99087.31;4419515;32;34211;-79
2022/02/17 00:30:44;;;;;;;;;;;;;;;8.16;63.97;99091.66;4431942;32;34242;-77
2022/02/17 00:33:12;;;;;;;;;;;;;;;8.18;63.87;99087.03;4415805;32;33995;-78
2022/02/17 00:35:43;;;;;;;;;;;;;;;8.58;61.91;99085.75;4426712;32;34051;-78
2022/02/17 00:38:11;;;;;;;;;;;;;;;8.30;62.96;99075.31;4441549;32;35360;-78
2022/02/17 00:40:39;;;;;;;;;;;;;;;7.93;64.00;99085.03;4433934;32;32356;-77
2022/02/17 00:43:06;;;;;;;;;;;;;;;8.29;63.06;99086.87;4417958;32;33520;-78
2022/02/17 00:45:34;;;;;;;;;;;;;;;8.04;63.91;99070.81;4414157;32;35013;-78
2022/02/17 00:48:04;;;;;;;;;;;;;;;7.81;64.82;99070.31;4418820;32;34027;-77
2022/02/17 00:50:38;;;;;;;;;;;;;;;8.07;64.39;99057.25;4417993;32;33902;-78
2022/02/17 00:53:07;;;;;;;;;;;;;;;7.72;65.53;99052.66;4415918;32;34851;-78
2022/02/17 00:55:35;;;;;;;;;;;;;;;7.21;67.63;99046.09;4418030;32;34435;-78
2022/02/17 00:58:04;;;;;;;;;;;;;;;7.47;66.55;99034.75;4404231;32;33695;-78
2022/02/17 01:00:32;;;;;;;;;;;;;;;7.56;66.55;99025.94;4418735;32;33280;-77
2022/02/17 01:03:01;;;;;;;;;;;;;;;7.70;66.35;99032.59;4415998;32;34562;-77
2022/02/17 01:05:29;;;;;;;;;;;;;;;7.81;65.80;99021.84;4419172;32;34846;-78
2022/02/17 01:07:59;;;;;;;;;;;;;;;7.91;65.40;99026.09;4406752;32;34799;-78
2022/02/17 01:10:27;;;;;;;;;;;;;;;8.03;65.21;99018.81;4416819;32;32869;-79
2022/02/17 01:12:58;;;;;;;;;;;;;;;7.90;65.65;99010.34;4406461;32;33832;-78
2022/02/17 01:15:27;;;;;;;;;;;;;;;7.63;66.78;98994.47;4432092;32;34972;-78
2022/02/17 01:17:55;;;;;;;;;;;;;;;7.38;67.76;98989.81;4420026;32;35553;-78
2022/02/17 01:20:22;;;;;;;;;;;;;;;7.43;68.00;98998.12;4416504;32;34236;-77
2022/02/17 01:22:51;;;;;;;;;;;;;;;7.46;68.08;99003.16;4429095;32;33862;-77
2022/02/17 01:25:18;;;;;;;;;;;;;;;7.85;66.90;98984.31;4416166;32;35785;-77
2022/02/17 01:27:45;;;;;;;;;;;;;;;8.05;66.03;98974.47;4405293;32;34583;-78
2022/02/17 01:30:13;;;;;;;;;;;;;;;8.11;65.77;98995.06;4416937;32;32773;-78
2022/02/17 01:32:41;;;;;;;;;;;;;;;8.04;65.92;99026.63;4405385;32;33682;-77
2022/02/17 01:35:08;;;;;;;;;;;;;;;8.01;65.70;99024.25;4431267;32;35784;-78
2022/02/17 01:37:36;;;;;;;;;;;;;;;8.51;63.93;98989.25;4417535;32;33831;-78
2022/02/17 01:40:04;;;;;;;;;;;;;;;8.19;65.23;98985.41;4418277;32;32023;-78
2022/02/17 01:42:31;;;;;;;;;;;;;;;8.28;64.49;98979.22;4416132;32;34679;-78
2022/02/17 01:45:01;;;;;;;;;;;;;;;8.33;64.70;98978.78;4431899;32;35374;-79
2022/02/17 01:47:28;;;;;;;;;;;;;;;8.41;64.23;98966.47;4419514;32;33061;-79
2022/02/17 01:49:56;;;;;;;;;;;;;;;8.38;64.53;98942.06;4402085;32;33114;-78
2022/02/17 01:52:24;;;;;;;;;;;;;;;8.28;64.68;98926.22;4403698;32;34283;-78
2022/02/17 01:54:52;;;;;;;;;;;;;;;7.38;68.11;98926.31;4418130;32;35049;-77
2022/02/17 01:57:24;;;;;;;;;;;;;;;6.90;70.24;98929.09;4407176;32;34160;-77
2022/02/17 01:59:52;;;;;;;;;;;;;;;7.52;68.34;98939.03;4401660;32;32013;-78
2022/02/17 02:02:21;;;;;;;;;;;;;;;7.72;67.55;98924.78;4430865;32;36260;-78
2022/02/17 02:04:52;;;;;;;;;;;;;;;8.24;65.71;98916.09;4431319;32;34910;-78
2022/02/17 02:07:19;;;;;;;;;;;;;;;8.09;66.29;98910.44;4428832;32;34005;-78
2022/02/17 02:09:47;;;;;;;;;;;;;;;7.79;66.95;98905.50;4418181;32;33644;-78
2022/02/17 02:12:15;;;;;;;;;;;;;;;8.30;65.48;98892.47;4429395;32;34955;-78
2022/02/17 02:14:53;;;;;;;;;;;;;;;8.52;64.67;98878.75;4407945;32;35250;-77
2022/02/17 02:17:24;;;;;;;;;;;;;;;8.43;64.94;98875.19;4413959;32;34658;-77
2022/02/17 02:19:57;;;;;;;;;;;;;;;7.96;66.10;98878.22;4417710;32;31718;-79
2022/02/17 02:22:29;;;;;;;;;;;;;;;8.22;65.92;98873.84;4417355;32;32963;-78
2022/02/17 02:24:58;;;;;;;;;;;;;;;8.45;65.00;98856.50;4416425;32;34994;-79
2022/02/17 02:27:27;;;;;;;;;;;;;;;8.12;66.19;98856.34;4415138;32;35280;-78
2022/02/17 02:29:55;;;;;;;;;;;;;;;8.23;65.74;98851.69;4418624;32;33570;-77
2022/02/17 02:32:24;;;;;;;;;;;;;;;7.79;67.62;98849.87;4445673;32;33835;-78
2022/02/17 02:34:52;;;;;;;;;;;;;;;8.47;65.33;98851.88;4437384;32;34978;-77
2022/02/17 02:37:20;;;;;;;;;;;;;;;8.80;63.97;98851.13;4420497;32;34316;-78
2022/02/17 02:39:47;;;;;;;;;;;;;;;8.68;64.15;98850.53;4441358;32;32885;-78
2022/02/17 02:42:16;;;;;;;;;;;;;;;8.58;64.63;98857.75;4424688;32;34294;-79
2022/02/17 02:44:44;;;;;;;;;;;;;;;8.90;63.61;98863.28;4431366;32;34485;-78
2022/02/17 02:47:11;;;;;;;;;;;;;;;8.79;63.62;98858.22;4422152;32;34256;-77
2022/02/17 02:49:39;;;;;;;;;;;;;;;8.83;63.65;98856.94;4402948;32;34747;-78
2022/02/17 02:52:07;;;;;;;;;;;;;;;8.89;63.63;98844.88;4419751;32;33480;-78
2022/02/17 02:54:35;;;;;;;;;;;;;;;8.70;64.33;98831.84;4443364;32;35245;-77
2022/02/17 02:57:02;;;;;;;;;;;;;;;8.96;63.26;98833.47;4419119;32;33081;-78
2022/02/17 02:59:30;;;;;;;;;;;;;;;8.64;64.37;98835.94;4434731;32;33330;-78
2022/02/17 03:01:57;;;;;;;;;;;;;;;8.66;64.34;98841.91;4404979;32;33327;-78
2022/02/17 03:04:25;;;;;;;;;;;;;;;8.73;64.37;98828.88;4445004;32;37311;-77
2022/02/17 03:06:52;;;;;;;;;;;;;;;8.55;64.66;98820.97;4417180;32;34152;-78
2022/02/17 03:09:19;;;;;;;;;;;;;;;8.54;64.82;98806.03;4430599;32;33381;-79
2022/02/17 03:11:47;;;;;;;;;;;;;;;8.23;65.92;98800.50;4430078;32;34278;-78
2022/02/17 03:14:15;;;;;;;;;;;;;;;8.78;64.19;98797.37;4405036;32;35015;-79
2022/02/17 03:16:42;;;;;;;;;;;;;;;8.60;64.82;98804.59;4428298;32;34191;-78
2022/02/17 03:19:13;;;;;;;;;;;;;;;8.53;65.17;98792.94;4430414;32;33465;-79
2022/02/17 03:21:41;;;;;;;;;;;;;;;8.79;64.03;98793.78;4417196;32;34774;-77
2022/02/17 03:24:08;;;;;;;;;;;;;;;8.95;63.47;98789.37;4420650;32;37181;-78
2022/02/17 03:26:36;;;;;;;;;;;;;;;9.26;62.36;98779.88;4417906;32;33035;-78
2022/02/17 03:29:04;;;;;;;;;;;;;;;9.24;62.42;98787.19;4430515;32;34113;-78
2022/02/17 03:31:32;;;;;;;;;;;;;;;9.02;63.26;98781.63;4474481;26;34569;-80
2022/02/17 03:34:00;;;;;;;;;;;;;;;9.02;63.22;98784.25;4430297;32;33742;-82
2022/02/17 03:36:30;;;;;;;;;;;;;;;9.21;62.83;98781.34;4418180;32;34890;-81
2022/02/17 03:38:59;;;;;;;;;;;;;;;9.35;61.73;98772.81;4431616;32;33198;-80
2022/02/17 03:41:30;;;;;;;;;;;;;;;8.70;64.13;98769.00;4442415;32;34153;-81
2022/02/17 03:44:03;;;;;;;;;;;;;;;8.88;63.63;98753.88;4442450;32;35793;-81
2022/02/17 03:46:31;;;;;;;;;;;;;;;9.07;63.17;98766.87;4443568;32;35481;-81
2022/02/17 03:48:59;;;;;;;;;;;;;;;8.89;63.50;98763.47;4444036;32;33484;-80
2022/02/17 03:51:28;;;;;;;;;;;;;;;9.11;62.91;98768.25;4419530;32;32927;-81
2022/02/17 03:53:55;;;;;;;;;;;;;;;8.80;63.72;98763.63;4419025;32;34469;-80
2022/02/17 03:56:23;;;;;;;;;;;;;;;9.12;62.80;98783.16;4433121;32;35167;-79
2022/02/17 03:59:08;;;;;;;;;;;;;;;9.23;62.51;98777.56;4446149;32;34197;-80
2022/02/17 04:01:36;;;;;;;;;;;;;;;9.02;62.94;98795.72;4420064;32;32539;-80
2022/02/17 04:04:06;;;;;;;;;;;;;;;9.10;62.73;98790.44;4419356;32;35637;-80
2022/02/17 04:06:33;;;;;;;;;;;;;;;8.91;63.26;98803.13;4432501;32;34377;-80
2022/02/17 04:09:02;;;;;;;;;;;;;;;8.50;64.61;98815.28;4433445;32;32156;-80
2022/02/17 04:11:31;;;;;;;;;;;;;;;9.05;62.91;98813.97;4431929;32;32447;-80
2022/02/17 04:14:01;;;;;;;;;;;;;;;8.95;63.25;98820.37;4420272;32;34291;-82
2022/02/17 04:16:31;;;;;;;;;;;;;;;8.63;64.23;98815.69;4431468;32;33967;-80
2022/02/17 04:19:01;;;;;;;;;;;;;;;8.71;63.89;98804.31;4446240;32;33911;-80
2022/02/17 04:21:29;;;;;;;;;;;;;;;9.13;62.70;98791.94;4413064;32;32663;-80
2022/02/17 04:23:58;;;;;;;;;;;;;;;9.35;62.29;98784.22;4432805;32;36113;-82
2022/02/17 04:26:26;;;;;;;;;;;;;;;8.96;63.60;98783.09;4431851;32;32977;-82
2022/02/17 04:28:57;;;;;;;;;;;;;;;8.77;64.86;98766.56;4419705;32;33235;-79
2022/02/17 04:31:27;;;;;;;;;;;;;;;9.07;63.82;98756.25;4432227;32;33752;-82
2022/02/17 04:33:55;;;;;;;;;;;;;;;8.75;65.45;98753.47;4432231;32;36383;-80
2022/02/17 04:36:24;;;;;;;;;;;;;;;8.83;65.81;98752.69;4444702;32;35582;-81
2022/02/17 04:38:52;;;;;;;;;;;;;;;9.06;65.22;98759.06;4419483;32;32114;-80
2022/02/17 04:44:11;;;;;;;;;;;;;;;8.72;67.00;98745.81;4444212;32;36578;-81
2022/02/17 04:46:41;;;;;;;;;;;;;;;8.48;67.92;98723.66;4445816;32;34154;-82
2022/02/17 04:49:14;;;;;;;;;;;;;;;8.52;67.65;98714.41;4432250;32;33188;-82
2022/02/17 04:51:42;;;;;;;;;;;;;;;8.33;68.50;98711.97;4431897;32;34646;-82
2022/02/17 04:54:14;;;;;;;;;;;;;;;8.45;68.43;98716.03;4427783;32;34916;-80
2022/02/17 04:56:43;;;;;;;;;;;;;;;8.36;68.67;98711.66;4444512;32;33824;-82
2022/02/17 04:59:15;;;;;;;;;;;;;;;8.45;68.66;98719.50;4431792;32;35774;-80
2022/02/17 05:01:44;;;;;;;;;;;;;;;8.18;69.74;98717.94;4444530;32;34951;-80
2022/02/17 05:04:19;;;;;;;;;;;;;;;8.58;68.51;98713.75;4439840;32;35369;-80
2022/02/17 05:06:48;;;;;;;;;;;;;;;8.26;69.30;98700.34;4431045;32;34831;-80
2022/02/17 05:09:17;;;;;;;;;;;;;;;8.30;69.36;98700.88;4432479;32;32708;-81
2022/02/17 05:11:46;;;;;;;;;;;;;;;8.29;69.71;98704.50;4430990;32;33928;-81
2022/02/17 05:14:21;;;;;;;;;;;;;;;8.11;70.50;98687.78;4420139;32;35203;-83
2022/02/17 05:16:49;;;;;;;;;;;;;;;8.29;69.44;98670.88;4431656;32;34656;-82
2022/02/17 05:19:18;;;;;;;;;;;;;;;8.38;69.34;98656.69;4445279;32;32699;-82
2022/02/17 05:21:46;;;;;;;;;;;;;;;8.12;69.57;98652.37;4444104;32;35047;-80
2022/02/17 05:24:18;;;;;;;;;;;;;;;7.51;72.31;98655.06;4431777;32;35234;-80
2022/02/17 05:26:47;;;;;;;;;;;;;;;7.59;72.10;98635.78;4419191;32;33385;-80
2022/02/17 05:29:15;;;;;;;;;;;;;;;8.07;71.19;98634.28;4431374;32;31893;-82
2022/02/17 05:31:44;;;;;;;;;;;;;;;8.33;69.97;98632.50;4444109;32;34711;-82
2022/02/17 05:34:17;;;;;;;;;;;;;;;7.98;71.04;98631.75;4443546;32;34951;-80
2022/02/17 05:36:46;;;;;;;;;;;;;;;7.71;72.37;98631.88;4431546;32;33938;-80
2022/02/17 05:39:13;;;;;;;;;;;;;;;8.10;70.85;98618.09;4431360;32;33064;-80
2022/02/17 05:41:50;;;;;;;;;;;;;;;8.24;70.23;98606.09;4420018;32;33753;-82
2022/02/17 05:44:19;;;;;;;;;;;;;;;8.28;69.72;98599.50;4444772;32;35496;-81
2022/02/17 05:46:46;;;;;;;;;;;;;;;8.17;70.25;98591.78;4443731;32;34651;-82
2022/02/17 05:49:14;;;;;;;;;;;;;;;8.37;69.34;98577.38;4443673;32;33594;-81
2022/02/17 05:51:42;;;;;;;;;;;;;;;8.52;68.85;98568.63;4430609;32;33583;-81
2022/02/17 05:54:10;;;;;;;;;;;;;;;8.43;69.43;98603.19;4431653;32;34830;-80
2022/02/17 05:56:41;;;;;;;;;;;;;;;8.03;70.25;98602.97;4431439;32;33157;-80
2022/02/17 05:59:09;;;;;;;;;;;;;;;7.82;71.81;98605.19;4445075;32;33122;-81
2022/02/17 06:01:36;;;;;;;;;;;;;;;7.94;70.87;98604.72;4443075;32;33811;-81
2022/02/17 06:04:04;;;;;;;;;;;;;;;7.95;71.28;98595.00;4443966;32;35268;-81
2022/02/17 06:06:36;;;;;;;;;;;;;;;7.94;71.70;98611.88;4445164;32;33659;-79
2022/02/17 06:09:06;;;;;;;;;;;;;;;8.10;71.08;98601.38;4431352;32;34928;-80
2022/02/17 06:11:34;;;;;;;;;;;;;;;8.32;69.88;98598.19;4444765;32;34259;-80
2022/02/17 06:14:09;;;;;;;;;;;;;;;7.89;71.38;98585.84;4431292;32;35258;-80
2022/02/17 06:16:36;;;;;;;;;;;;;;;8.14;70.83;98587.66;4443314;32;34138;-80
2022/02/17 06:19:03;;;;;;;;;;;;;;;7.98;71.51;98590.22;4430844;32;32509;-81
2022/02/17 06:21:33;;;;;;;;;;;;;;;8.33;69.87;98583.94;4443622;32;34895;-80
2022/02/17 06:24:00;;;;;;;;;;;;;;;7.99;71.11;98570.69;4448427;32;35952;-81
2022/02/17 06:26:28;;;;;;;;;;;;;;;7.64;72.25;98577.94;4430795;32;33411;-80
2022/02/17 06:28:56;;;;;;;;;;;;;;;7.75;72.36;98567.87;4418114;32;31927;-79
2022/02/17 06:31:23;;;;;;;;;;;;;;;8.14;71.15;98585.00;4443254;32;34640;-80
2022/02/17 06:33:51;;;;;;;;;;;;;;;8.17;71.08;98560.84;4431104;32;35301;-81
2022/02/17 06:36:20;;;;;;;;;;;;;;;8.36;70.28;98562.44;4431308;32;35853;-82
2022/02/17 06:38:48;;;;;;;;;;;;;;;8.41;70.10;98607.84;4409229;32;848933;-81
2022/02/17 06:41:18;;;;;;;;;;;;;;;8.77;69.25;98587.09;4427674;32;32807;-81
2022/02/17 06:43:46;;;;;;;;;;;;;;;8.54;69.67;98593.97;4444502;32;35404;-80
2022/02/17 06:46:13;;;;;;;;;;;;;;;8.30;70.08;98611.59;4443780;32;34457;-80
2022/02/17 06:48:42;;;;;;;;;;;;;;;8.65;69.52;98593.69;4430773;32;32920;-82
2022/02/17 06:51:11;;;;;;;;;;;;;;;8.87;68.71;98593.06;4430430;32;34118;-80
2022/02/17 06:53:41;;;;;;;;;;;;;;;9.18;66.82;98577.38;4431314;32;35767;-80
2022/02/17 06:56:12;;;;;;;;;;;;;;;8.56;69.37;98556.69;4443642;32;35139;-80
2022/02/17 06:58:39;;;;;;;;;;;;;;;8.82;67.89;98544.19;4430582;32;33970;-80
2022/02/17 07:01:07;;;;;;;;;;;;;;;8.35;69.71;98558.13;4429497;32;32309;-80
2022/02/17 07:03:36;;;;;;;;;;;;;;;8.24;70.20;98542.50;4430785;32;35288;-80
2022/02/17 07:06:06;;;;;;;;;;;;;;;8.37;69.85;98535.78;4443177;32;33467;-80
2022/02/17 07:08:33;;;;;;;;;;;;;;;8.06;70.94;98541.75;4443303;32;34379;-80
2022/02/17 07:11:03;;;;;;;;;;;;;;;8.26;70.26;98543.19;4417745;32;32384;-80
2022/02/17 07:13:30;;;;;;;;;;;;;;;8.67;68.84;98543.97;4430251;32;34400;-80
2022/02/17 07:15:58;;;;;;;;;;;;;;;8.89;68.15;98563.75;4430541;32;34094;-80
2022/02/17 07:18:27;;;;;;;;;;;;;;;8.76;68.40;98582.78;4442596;32;32929;-80
2022/02/17 07:20:55;;;;;;;;;;;;;;;8.99;67.72;98583.00;4429981;32;33682;-79
2022/02/17 07:23:26;;;;;;;;;;;;;;;8.92;67.44;98590.78;4430065;32;35211;-80
2022/02/17 07:25:55;;;;;;;;;;;;;;;8.96;67.29;98594.75;4418678;32;36000;-79
2022/02/17 07:28:23;;;;;;;;;;;;;;;8.44;69.18;98560.66;4446193;32;32422;-80
2022/02/17 07:30:50;;;;;;;;;;;;;;;8.59;68.84;98562.50;4444528;32;34307;-81
2022/02/17 07:33:19;;;;;;;;;;;;;;;7.86;70.73;98551.75;4444716;32;34996;-81
2022/02/17 07:35:47;;;;;;;;;;;;;;;8.29;69.57;98527.00;4432101;32;33092;-80
2022/02/17 07:38:35;;;;;;;;;;;;;;;8.26;69.76;98529.94;4445292;32;33563;-81
2022/02/17 07:41:03;;;;;;;;;;;;;;;8.40;68.51;98502.84;4444195;32;32877;-81
2022/02/17 07:43:32;;;;;;;;;;;;;;;8.44;69.15;98499.69;4444616;32;35600;-80
2022/02/17 07:46:03;;;;;;;;;;;;;;;8.35;68.97;98495.38;4444992;32;34598;-80
2022/02/17 07:48:30;;;;;;;;;;;;;;;8.60;68.18;98481.19;4411816;32;32035;-81
2022/02/17 07:50:58;;;;;;;;;;;;;;;8.19;69.06;98470.66;4446060;32;33707;-81
2022/02/17 07:53:25;;;;;;;;;;;;;;;8.18;69.46;98475.06;4445961;32;35344;-81
2022/02/17 07:55:53;;;;;;;;;;;;;;;8.50;68.51;98476.03;4419055;32;34040;-81
2022/02/17 07:58:20;;;;;;;;;;;;;;;8.48;67.81;98496.56;4444999;32;33594;-80
2022/02/17 08:00:48;;;;;;;;;;;;;;;8.60;68.15;98508.50;4444703;32;33527;-81
2022/02/17 08:03:18;;;;;;;;;;;;;;;8.40;68.00;98463.91;4432238;32;33857;-82
2022/02/17 08:05:46;;;;;;;;;;;;;;;8.71;67.48;98464.94;4431836;32;34999;-81
2022/02/17 08:08:15;;;;;;;;;;;;;;;9.18;65.90;98463.28;4432103;32;32089;-80
2022/02/17 08:10:43;;;;;;;;;;;;;;;8.92;66.45;98466.12;4432121;32;32369;-81
2022/02/17 08:13:11;;;;;;;;;;;;;;;9.29;65.11;98516.84;4446327;32;34931;-80
2022/02/17 08:15:40;;;;;;;;;;;;;;;9.44;65.11;98501.88;4446581;32;34398;-82
2022/02/17 08:18:11;;;;;;;;;;;;;;;9.65;64.01;98490.72;4445197;32;32967;-80
2022/02/17 08:20:38;;;;;;;;;;;;;;;9.59;64.15;98515.28;4444877;32;33865;-82
2022/02/17 08:23:07;;;;;;;;;;;;;;;9.49;65.87;98478.34;4420016;32;34245;-81
2022/02/17 08:25:35;;;;;;;;;;;;;;;9.72;64.80;98481.09;4445139;32;34345;-80
2022/02/17 08:28:02;;;;;;;;;;;;;;;10.07;63.38;98460.22;4428806;32;34299;-80
2022/02/17 08:30:30;;;;;;;;;;;;;;;9.95;64.18;98480.19;4412585;32;32671;-81
2022/02/17 08:32:58;;;;;;;;;;;;;;;10.33;64.00;98483.84;4444145;32;35311;-80
2022/02/17 08:35:27;;;;;;;;;;;;;;;10.42;63.77;98485.47;4431758;32;34420;-80
2022/02/17 08:37:56;;;;;;;;;;;;;;;10.60;62.21;98483.34;4443653;32;32735;-81
2022/02/17 08:40:25;;;;;;;;;;;;;;;10.44;62.65;98483.44;4432142;32;33354;-80
2022/02/17 08:42:54;;;;;;;;;;;;;;;10.67;61.02;98474.50;4444292;32;34290;-82
2022/02/17 08:45:21;;;;;;;;;;;;;;;11.12;59.22;98463.03;4431220;32;34703;-80
2022/02/17 08:47:49;;;;;;;;;;;;;;;10.53;61.62;98477.06;4432200;32;33825;-81
2022/02/17 08:50:17;;;;;;;;;;;;;;;10.43;60.53;98476.47;4419272;32;33327;-80
2022/02/17 08:52:45;;;;;;;;;;;;;;;9.94;61.98;98475.84;4444569;32;35356;-81
2022/02/17 08:55:13;;;;;;;;;;;;;;;10.39;60.88;98468.03;4419084;32;33758;-80
2022/02/17 08:57:43;;;;;;;;;;;;;;;10.03;61.48;98456.25;4431644;32;31926;-80
2022/02/17 09:00:11;;;;;;;;;;;;;;;10.33;62.32;98457.25;4444545;32;33785;-81
2022/02/17 09:02:38;;;;;;;;;;;;;;;10.42;60.59;98457.06;4445813;32;35031;-80
2022/02/17 09:05:06;;;;;;;;;;;;;;;10.37;61.93;98462.06;4431822;32;34180;-81
2022/02/17 09:07:34;;;;;;;;;;;;;;;10.77;60.23;98445.00;4431405;32;32043;-80
2022/02/17 09:10:02;;;;;;;;;;;;;;;10.72;60.99;98437.56;4431332;32;34291;-81
2022/02/17 09:12:31;;;;;;;;;;;;;;;11.10;58.84;98441.06;4443759;32;35038;-81
2022/02/17 09:14:59;;;;;;;;;;;;;;;10.80;60.11;98437.50;4432403;32;33936;-81
2022/02/17 09:17:27;;;;;;;;;;;;;;;10.92;58.28;98451.19;4431861;32;33887;-80
2022/02/17 09:19:55;;;;;;;;;;;;;;;11.25;58.92;98426.78;4412566;32;32671;-80
2022/02/17 09:22:24;;;;;;;;;;;;;;;10.80;59.28;98449.97;4445536;32;35394;-80
2022/02/17 09:24:54;;;;;;;;;;;;;;;10.77;58.46;98429.06;4444798;32;34576;-80
2022/02/17 09:27:21;;;;;;;;;;;;;;;10.98;60.32;98418.56;4444099;32;34926;-80
2022/02/17 09:29:50;;;;;;;;;;;;;;;11.27;58.19;98413.28;4444298;32;34328;-80
2022/02/17 09:32:23;;;;;;;;;;;;;;;11.39;58.38;98408.16;4431941;32;34095;-80
2022/02/17 09:34:51;;;;;;;;;;;;;;;11.02;58.49;98409.22;4431825;32;33275;-79
2022/02/17 09:37:20;;;;;;;;;;;;;;;11.21;58.86;98427.34;4431893;32;32808;-80
2022/02/17 09:39:50;;;;;;;;;;;;;;;11.01;57.47;98400.41;4432194;32;33577;-80
2022/02/17 09:42:18;;;;;;;;;;;;;;;11.24;57.84;98379.84;4443949;32;35489;-80
2022/02/17 09:44:45;;;;;;;;;;;;;;;11.40;58.28;98375.22;4431709;32;33464;-81
2022/02/17 09:47:13;;;;;;;;;;;;;;;11.75;57.41;98386.97;4431485;32;31554;-80
2022/02/17 09:49:43;;;;;;;;;;;;;;;11.68;55.24;98359.41;4444136;32;31940;-80
2022/02/17 09:52:13;;;;;;;;;;;;;;;12.21;55.38;98364.34;4430878;32;34238;-81
2022/02/17 09:54:41;;;;;;;;;;;;;;;12.72;53.90;98349.84;4431591;32;35054;-81
2022/02/17 09:57:09;;;;;;;;;;;;;;;12.39;53.15;98322.09;4444077;32;33443;-80
2022/02/17 09:59:37;;;;;;;;;;;;;;;12.43;54.72;98328.66;4444255;32;33554;-80
2022/02/17 10:02:06;;;;;;;;;;;;;;;12.37;54.08;98332.94;4431143;32;35607;-80
2022/02/17 10:04:34;;;;;;;;;;;;;;;12.59;53.77;98317.75;4431157;32;34468;-80
2022/02/17 10:07:09;;;;;;;;;;;;;;;12.35;53.34;98332.31;4407454;32;32908;-79
2022/02/17 10:09:37;;;;;;;;;;;;;;;12.77;52.47;98337.59;4444139;32;34299;-79
2022/02/17 10:12:05;;;;;;;;;;;;;;;12.76;52.86;98337.81;4445051;32;34245;-82
2022/02/17 10:14:33;;;;;;;;;;;;;;;12.66;52.69;98323.97;4444422;32;34047;-78
2022/02/17 10:17:06;;;;;;;;;;;;;;;12.92;51.25;98308.16;4445730;32;33165;-78
2022/02/17 10:19:35;;;;;;;;;;;;;;;13.10;53.33;98317.34;4444153;32;33448;-78
2022/02/17 10:22:14;;;;;;;;;;;;;;;13.36;50.93;98293.47;4443958;32;35890;-77
2022/02/17 10:24:44;;;;;;;;;;;;;;;12.58;51.30;98308.91;4431149;32;35816;-76
2022/02/17 10:27:12;;;;;;;;;;;;;;;12.50;52.78;98297.56;4443968;32;33295;-77
2022/02/17 10:29:56;;;;;;;;;;;;;;;13.01;51.44;98274.97;4444859;32;34206;-76
2022/02/17 10:32:24;;;;;;;;;;;;;;;12.91;51.63;98298.47;4442922;32;36871;-76
2022/02/17 10:35:09;;;;;;;;;;;;;;;13.07;52.33;98256.34;4429771;32;34047;-78
2022/02/17 10:37:45;;;;;;;;;;;;;;;13.28;51.26;98269.59;4430495;32;32828;-79
2022/02/17 10:40:19;;;;;;;;;;;;;;;13.29;51.41;98270.41;4410659;32;33428;-78
2022/02/17 10:43:08;;;;;;;;;;;;;;;13.22;51.02;98269.56;4426367;32;35208;-78
2022/02/17 10:45:40;;;;;;;;;;;;;;;13.19;50.15;98251.25;4444600;32;33874;-78
2022/02/17 10:48:11;;;;;;;;;;;;;;;12.96;51.28;98242.72;4430778;32;33082;-78
2022/02/17 10:50:39;;;;;;;;;;;;;;;13.89;50.81;98251.72;4443227;32;33879;-78
2022/02/17 10:53:15;;;;;;;;;;;;;;;13.74;48.64;98230.50;4417847;32;34643;-78
2022/02/17 10:55:52;;;;;;;;;;;;;;;14.07;49.26;98218.00;4430588;32;35980;-78
2022/02/17 10:58:27;;;;;;;;;;;;;;;14.35;48.71;98228.56;4431216;32;34016;-76
2022/02/17 11:01:00;;;;;;;;;;;;;;;14.30;47.64;98237.22;4430423;32;32749;-77
2022/02/17 11:03:34;;;;;;;;;;;;;;;14.07;48.28;98227.91;4422975;32;36646;-78
2022/02/17 11:06:12;;;;;;;;;;;;;;;13.94;48.68;98204.66;4443352;32;33633;-78
2022/02/17 11:08:42;;;;;;;;;;;;;;;14.08;49.08;98189.44;4430906;32;33559;-79
2022/02/17 11:11:10;;;;;;;;;;;;;;;14.35;48.39;98196.47;4433244;32;33586;-78
2022/02/17 11:13:39;;;;;;;;;;;;;;;13.91;47.85;98199.72;4423513;32;34838;-78
2022/02/17 11:16:10;;;;;;;;;;;;;;;14.23;48.46;98169.50;4418550;32;34502;-77
2022/02/17 11:18:39;;;;;;;;;;;;;;;13.94;48.67;98193.13;4417790;32;33352;-78
2022/02/17 11:21:08;;;;;;;;;;;;;;;13.50;49.11;98211.53;4430121;32;33998;-78
2022/02/17 11:23:36;;;;;;;;;;;;;;;13.71;49.36;98198.84;4444299;32;36234;-78
2022/02/17 11:26:18;;;;;;;;;;;;;;;13.86;48.83;98220.88;4430355;32;33725;-77
2022/02/17 11:28:45;;;;;;;;;;;;;;;13.50;49.72;98206.19;4424152;32;32129;-78
2022/02/17 11:31:13;;;;;;;;;;;;;;;14.07;49.03;98210.00;4417404;32;32571;-77
2022/02/17 11:33:41;;;;;;;;;;;;;;;14.28;48.21;98231.25;4430080;32;33632;-78
2022/02/17 11:36:19;;;;;;;;;;;;;;;14.20;48.17;98228.78;4430104;32;34331;-78
2022/02/17 11:38:50;;;;;;;;;;;;;;;13.74;48.93;98237.69;4442973;32;33820;-78
2022/02/17 11:41:28;;;;;;;;;;;;;;;13.57;49.78;98217.69;4442643;32;34243;-79
2022/02/17 11:44:09;;;;;;;;;;;;;;;13.81;49.23;98222.50;4443180;32;35946;-78
2022/02/17 11:46:40;;;;;;;;;;;;;;;13.62;48.50;98252.66;4417356;32;33114;-78
2022/02/17 11:49:08;;;;;;;;;;;;;;;13.56;49.36;98264.16;4429866;32;32554;-78
2022/02/17 11:51:37;;;;;;;;;;;;;;;13.93;48.82;98299.25;4430021;32;34767;-79
2022/02/17 11:54:15;;;;;;;;;;;;;;;14.02;48.71;98305.22;4442522;32;34845;-79
2022/02/17 11:56:50;;;;;;;;;;;;;;;13.86;49.48;98313.62;4442531;32;33082;-78
2022/02/17 11:59:18;;;;;;;;;;;;;;;13.95;49.43;98293.72;4444078;32;32304;-77
2022/02/17 12:01:47;;;;;;;;;;;;;;;13.81;49.30;98279.47;4442847;32;33444;-79
2022/02/17 12:04:35;;;;;;;;;;;;;;;14.15;49.32;98286.56;4432221;32;36013;-78
2022/02/17 12:07:04;;;;;;;;;;;;;;;14.12;49.09;98279.75;4429757;32;34065;-78
2022/02/17 12:09:36;;;;;;;;;;;;;;;14.13;48.92;98276.03;4416988;32;32196;-78
2022/02/17 12:12:24;;;;;;;;;;;;;;;14.20;48.97;98266.22;4434148;32;34314;-78
2022/02/17 12:14:52;;;;;;;;;;;;;;;14.38;48.65;98266.44;4431796;32;35615;-77
2022/02/17 12:17:27;;;;;;;;;;;;;;;13.93;49.61;98250.28;4418928;32;34467;-79
2022/02/17 12:20:01;;;;;;;;;;;;;;;13.80;49.76;98250.25;4419677;32;32742;-79
2022/02/17 12:22:29;;;;;;;;;;;;;;;14.19;49.09;98231.66;4444600;32;33471;-78
2022/02/17 12:25:13;;;;;;;;;;;;;;;13.77;50.46;98243.47;4444555;32;35323;-78
2022/02/17 12:27:41;;;;;;;;;;;;;;;13.89;50.88;98262.41;4419113;32;33634;-78
2022/02/17 12:30:10;;;;;;;;;;;;;;;14.45;49.54;98257.38;4432004;32;33131;-78
2022/02/17 12:32:37;;;;;;;;;;;;;;;14.34;49.61;98240.31;4418561;32;32598;-79
2022/02/17 12:35:08;;;;;;;;;;;;;;;14.38;49.62;98245.03;4432366;32;34393;-78
2022/02/17 12:37:35;;;;;;;;;;;;;;;14.56;49.38;98248.72;4431744;32;33309;-78
2022/02/17 12:40:03;;;;;;;;;;;;;;;14.58;48.82;98259.25;4444624;32;34012;-79
2022/02/17 12:42:40;;;;;;;;;;;;;;;14.87;48.50;98266.84;4444281;32;34811;-78
2022/02/17 12:45:08;;;;;;;;;;;;;;;14.65;49.31;98273.44;4431278;32;35810;-78
2022/02/17 12:47:36;;;;;;;;;;;;;;;14.46;49.34;98269.72;4418668;32;33258;-79
2022/02/17 12:50:04;;;;;;;;;;;;;;;14.45;50.05;98276.13;4444802;32;32491;-78
2022/02/17 12:52:33;;;;;;;;;;;;;;;14.50;49.07;98286.22;4444466;32;32686;-79
2022/02/17 12:55:07;;;;;;;;;;;;;;;14.70;49.37;98303.09;4444418;32;35387;-78
2022/02/17 12:57:36;;;;;;;;;;;;;;;15.05;48.36;98316.03;4444233;32;35286;-78
2022/02/17 13:00:08;;;;;;;;;;;;;;;14.93;48.77;98336.44;4419406;32;32382;-78
2022/02/17 13:02:39;;;;;;;;;;;;;;;14.67;49.74;98332.94;4431362;32;32735;-78
2022/02/17 13:05:08;;;;;;;;;;;;;;;14.69;49.92;98366.53;4431422;32;34768;-78
2022/02/17 13:07:37;;;;;;;;;;;;;;;14.60;51.48;98375.78;4443899;32;34428;-78